sensor_id;sensor_type;location;lat;lon;timestamp;pressure;altitude;pressure_sealevel;temperature;humidity
30463;BME280;17256;43.618;25.336;2023-06-14T00:00:09;100006.63;;;17.17;100.00
30463;BME280;17256;43.618;25.336;2023-06-14T00:02:46;100122.09;;;18.00;100.00
30463;BME280;17256;43.618;25.336;2023-06-14T00:05:20;99997.47;;;17.16;100.00
30463;BME280;17256;43.618;25.336;2023-06-14T00:08:22;100286.78;;;19.05;100.00
30463;BME280;17256;43.618;25.336;2023-06-14T00:11:46;100382.47;;;19.80;100.00
30463;BME280;17256;43.618;25.336;2023-06-14T00:14:40;100311.19;;;19.25;100.00
30463;BME280;17256;43.618;25.336;2023-06-14T00:17:33;100055.38;;;17.51;100.00
30463;BME280;17256;43.618;25.336;2023-06-14T00:20:09;100010.69;;;17.53;100.00
30463;BME280;17256;43.618;25.336;2023-06-14T00:22:53;99982.66;;;17.33;100.00
30463;BME280;17256;43.618;25.336;2023-06-14T00:25:32;100156.00;;;18.24;100.00
30463;BME280;17256;43.618;25.336;2023-06-14T00:28:59;100213.56;;;18.72;100.00
30463;BME280;17256;43.618;25.336;2023-06-14T00:31:46;100315.28;;;19.44;100.00
30463;BME280;17256;43.618;25.336;2023-06-14T00:35:20;100364.56;;;19.71;100.00
30463;BME280;17256;43.618;25.336;2023-06-14T00:38:13;100380.44;;;19.70;100.00
30463;BME280;17256;43.618;25.336;2023-06-14T00:41:09;100248.59;;;19.00;100.00
30463;BME280;17256;43.618;25.336;2023-06-14T00:43:51;99999.25;;;17.49;100.00
30463;BME280;17256;43.618;25.336;2023-06-14T00:46:50;100030.84;;;17.65;100.00
30463;BME280;17256;43.618;25.336;2023-06-14T00:49:51;100109.28;;;18.21;100.00
30463;BME280;17256;43.618;25.336;2023-06-14T00:52:23;100150.66;;;18.44;100.00
30463;BME280;17256;43.618;25.336;2023-06-14T00:55:24;100227.31;;;18.84;100.00
30463;BME280;17256;43.618;25.336;2023-06-14T00:58:12;100226.25;;;18.90;100.00
30463;BME280;17256;43.618;25.336;2023-06-14T01:00:48;100146.78;;;18.45;100.00
30463;BME280;17256;43.618;25.336;2023-06-14T01:03:25;100165.66;;;18.43;100.00
30463;BME280;17256;43.618;25.336;2023-06-14T01:06:32;100172.13;;;18.49;100.00
30463;BME280;17256;43.618;25.336;2023-06-14T01:10:06;100212.09;;;18.65;100.00
30463;BME280;17256;43.618;25.336;2023-06-14T01:13:32;100342.66;;;19.25;100.00
30463;BME280;17256;43.618;25.336;2023-06-14T01:16:41;100218.03;;;18.52;100.00
30463;BME280;17256;43.618;25.336;2023-06-14T01:19:21;100265.81;;;18.70;100.00
30463;BME280;17256;43.618;25.336;2023-06-14T01:22:21;99945.88;;;16.77;100.00
30463;BME280;17256;43.618;25.336;2023-06-14T01:25:24;99950.25;;;16.73;100.00
30463;BME280;17256;43.618;25.336;2023-06-14T01:28:18;100351.72;;;19.11;100.00
30463;BME280;17256;43.618;25.336;2023-06-14T01:31:02;100001.75;;;16.85;100.00
30463;BME280;17256;43.618;25.336;2023-06-14T01:34:11;100138.28;;;17.65;100.00
30463;BME280;17256;43.618;25.336;2023-06-14T01:36:52;100274.16;;;18.49;100.00
30463;BME280;17256;43.618;25.336;2023-06-14T01:39:42;100204.94;;;18.03;100.00
30463;BME280;17256;43.618;25.336;2023-06-14T01:42:29;100021.56;;;16.94;100.00
30463;BME280;17256;43.618;25.336;2023-06-14T01:45:06;100289.75;;;18.50;100.00
30463;BME280;17256;43.618;25.336;2023-06-14T01:47:37;100137.34;;;17.37;100.00
30463;BME280;17256;43.618;25.336;2023-06-14T01:50:06;100202.84;;;17.72;100.00
30463;BME280;17256;43.618;25.336;2023-06-14T01:52:44;100056.97;;;16.87;100.00
30463;BME280;17256;43.618;25.336;2023-06-14T01:55:20;99953.06;;;16.22;100.00
30463;BME280;17256;43.618;25.336;2023-06-14T01:57:55;100181.56;;;17.44;100.00
30463;BME280;17256;43.618;25.336;2023-06-14T02:00:57;100372.31;;;18.66;100.00
30463;BME280;17256;43.618;25.336;2023-06-14T02:03:43;100222.34;;;17.77;100.00
30463;BME280;17256;43.618;25.336;2023-06-14T02:06:28;99931.91;;;15.99;100.00
30463;BME280;17256;43.618;25.336;2023-06-14T02:09:04;100065.69;;;16.79;100.00
30463;BME280;17256;43.618;25.336;2023-06-14T02:11:49;100169.38;;;17.45;100.00
30463;BME280;17256;43.618;25.336;2023-06-14T02:14:36;100187.38;;;17.42;100.00
30463;BME280;17256;43.618;25.336;2023-06-14T02:17:16;100215.31;;;17.69;100.00
30463;BME280;17256;43.618;25.336;2023-06-14T02:20:04;100018.97;;;16.37;100.00
30463;BME280;17256;43.618;25.336;2023-06-14T02:22:37;100150.16;;;17.21;100.00
30463;BME280;17256;43.618;25.336;2023-06-14T02:25:12;100021.75;;;16.37;100.00
30463;BME280;17256;43.618;25.336;2023-06-14T02:27:44;100283.81;;;18.02;100.00
30463;BME280;17256;43.618;25.336;2023-06-14T02:30:12;100007.53;;;16.17;100.00
30463;BME280;17256;43.618;25.336;2023-06-14T02:32:56;100071.03;;;16.52;100.00
30463;BME280;17256;43.618;25.336;2023-06-14T02:35:46;100089.47;;;16.75;100.00
30463;BME280;17256;43.618;25.336;2023-06-14T02:38:15;99969.88;;;15.71;100.00
30463;BME280;17256;43.618;25.336;2023-06-14T02:41:00;100222.19;;;17.50;100.00
30463;BME280;17256;43.618;25.336;2023-06-14T02:43:33;100176.66;;;17.12;100.00
30463;BME280;17256;43.618;25.336;2023-06-14T02:46:26;100378.75;;;18.33;100.00
30463;BME280;17256;43.618;25.336;2023-06-14T02:48:57;100180.00;;;17.14;100.00
30463;BME280;17256;43.618;25.336;2023-06-14T02:51:36;100251.81;;;17.44;100.00
30463;BME280;17256;43.618;25.336;2023-06-14T02:54:16;100085.50;;;16.54;100.00
30463;BME280;17256;43.618;25.336;2023-06-14T02:56:55;100254.47;;;17.56;100.00
30463;BME280;17256;43.618;25.336;2023-06-14T02:59:33;100135.94;;;16.84;100.00
30463;BME280;17256;43.618;25.336;2023-06-14T03:02:07;99983.00;;;15.92;100.00
30463;BME280;17256;43.618;25.336;2023-06-14T03:04:35;100241.03;;;17.48;100.00
30463;BME280;17256;43.618;25.336;2023-06-14T03:07:08;100210.09;;;17.06;100.00
30463;BME280;17256;43.618;25.336;2023-06-14T03:10:04;100409.56;;;18.48;100.00
30463;BME280;17256;43.618;25.336;2023-06-14T03:12:47;100057.25;;;16.23;100.00
30463;BME280;17256;43.618;25.336;2023-06-14T03:15:21;100257.44;;;17.66;100.00
30463;BME280;17256;43.618;25.336;2023-06-14T03:17:59;100420.13;;;18.85;100.00
30463;BME280;17256;43.618;25.336;2023-06-14T03:20:51;100013.09;;;16.50;100.00
30463;BME280;17256;43.618;25.336;2023-06-14T03:23:43;100068.13;;;16.92;100.00
30463;BME280;17256;43.618;25.336;2023-06-14T03:26:51;100214.03;;;17.99;100.00
30463;BME280;17256;43.618;25.336;2023-06-14T03:29:45;100055.63;;;16.89;100.00
30463;BME280;17256;43.618;25.336;2023-06-14T03:32:40;100022.00;;;16.86;100.00
30463;BME280;17256;43.618;25.336;2023-06-14T03:35:15;100328.50;;;18.78;100.00
30463;BME280;17256;43.618;25.336;2023-06-14T03:37:53;100283.06;;;18.51;100.00
30463;BME280;17256;43.618;25.336;2023-06-14T03:40:33;100202.28;;;17.92;100.00
30463;BME280;17256;43.618;25.336;2023-06-14T03:43:25;100338.84;;;18.83;100.00
30463;BME280;17256;43.618;25.336;2023-06-14T03:46:28;100223.75;;;18.18;100.00
30463;BME280;17256;43.618;25.336;2023-06-14T03:49:20;100327.69;;;19.04;100.00
30463;BME280;17256;43.618;25.336;2023-06-14T03:52:01;100044.97;;;17.42;100.00
30463;BME280;17256;43.618;25.336;2023-06-14T03:55:04;100347.78;;;19.60;100.00
30463;BME280;17256;43.618;25.336;2023-06-14T03:57:42;100157.28;;;18.38;100.00
30463;BME280;17256;43.618;25.336;2023-06-14T04:00:37;100298.53;;;19.39;100.00
30463;BME280;17256;43.618;25.336;2023-06-14T04:03:16;100131.28;;;18.28;100.00
30463;BME280;17256;43.618;25.336;2023-06-14T04:06:05;100071.63;;;18.35;100.00
30463;BME280;17256;43.618;25.336;2023-06-14T04:08:37;100415.25;;;20.37;100.00
30463;BME280;17256;43.618;25.336;2023-06-14T04:11:12;100437.16;;;20.18;100.00
30463;BME280;17256;43.618;25.336;2023-06-14T04:13:50;100303.16;;;19.28;100.00
30463;BME280;17256;43.618;25.336;2023-06-14T04:16:40;100192.31;;;18.39;100.00
30463;BME280;17256;43.618;25.336;2023-06-14T04:19:43;100427.97;;;19.58;100.00
30463;BME280;17256;43.618;25.336;2023-06-14T04:22:44;100179.81;;;18.15;100.00
30463;BME280;17256;43.618;25.336;2023-06-14T04:29:55;100461.22;;;19.21;100.00
30463;BME280;17256;43.618;25.336;2023-06-14T04:34:14;100043.63;;;16.67;100.00
30463;BME280;17256;43.618;25.336;2023-06-14T04:40:53;100325.66;;;18.73;100.00
30463;BME280;17256;43.618;25.336;2023-06-14T04:43:32;100163.25;;;17.81;100.00
30463;BME280;17256;43.618;25.336;2023-06-14T04:46:05;100288.13;;;18.54;100.00
30463;BME280;17256;43.618;25.336;2023-06-14T04:49:01;100469.81;;;19.90;100.00
30463;BME280;17256;43.618;25.336;2023-06-14T04:53:04;100086.22;;;17.55;100.00
30463;BME280;17256;43.618;25.336;2023-06-14T04:55:50;100473.28;;;19.76;100.00
30463;BME280;17256;43.618;25.336;2023-06-14T04:58:24;100475.59;;;19.84;100.00
30463;BME280;17256;43.618;25.336;2023-06-14T05:01:05;100476.00;;;19.71;100.00
30463;BME280;17256;43.618;25.336;2023-06-14T05:03:38;100481.06;;;20.06;100.00
30463;BME280;17256;43.618;25.336;2023-06-14T05:13:24;100166.53;;;18.00;100.00
30463;BME280;17256;43.618;25.336;2023-06-14T05:15:57;100484.34;;;20.29;100.00
30463;BME280;17256;43.618;25.336;2023-06-14T05:18:56;100417.84;;;19.52;100.00
30463;BME280;17256;43.618;25.336;2023-06-14T05:22:01;100451.47;;;19.67;100.00
30463;BME280;17256;43.618;25.336;2023-06-14T05:25:04;100502.41;;;19.90;100.00
30463;BME280;17256;43.618;25.336;2023-06-14T05:27:59;100251.97;;;18.32;100.00
30463;BME280;17256;43.618;25.336;2023-06-14T05:30:34;100215.56;;;18.33;100.00
30463;BME280;17256;43.618;25.336;2023-06-14T05:33:21;100505.09;;;20.39;100.00
30463;BME280;17256;43.618;25.336;2023-06-14T05:36:38;100500.31;;;20.71;100.00
30463;BME280;17256;43.618;25.336;2023-06-14T05:39:59;100511.66;;;20.27;100.00
30463;BME280;17256;43.618;25.336;2023-06-14T05:42:55;100294.13;;;19.16;100.00
30463;BME280;17256;43.618;25.336;2023-06-14T05:49:46;100267.94;;;19.44;100.00
30463;BME280;17256;43.618;25.336;2023-06-14T05:52:34;100183.94;;;18.88;100.00
30463;BME280;17256;43.618;25.336;2023-06-14T05:55:33;100162.91;;;19.34;100.00
30463;BME280;17256;43.618;25.336;2023-06-14T05:59:05;100533.69;;;21.40;100.00
30463;BME280;17256;43.618;25.336;2023-06-14T06:06:30;100525.63;;;21.49;100.00
30463;BME280;17256;43.618;25.336;2023-06-14T06:09:42;100133.94;;;18.98;100.00
30463;BME280;17256;43.618;25.336;2023-06-14T06:12:25;100553.00;;;21.52;100.00
30463;BME280;17256;43.618;25.336;2023-06-14T06:15:47;100526.31;;;21.97;100.00
30463;BME280;17256;43.618;25.336;2023-06-14T06:19:30;100529.94;;;21.82;100.00
30463;BME280;17256;43.618;25.336;2023-06-14T06:22:44;100524.22;;;21.52;100.00
30463;BME280;17256;43.618;25.336;2023-06-14T06:26:48;100520.50;;;22.24;100.00
30463;BME280;17256;43.618;25.336;2023-06-14T06:30:24;100525.53;;;22.22;100.00
30463;BME280;17256;43.618;25.336;2023-06-14T06:34:18;100525.84;;;22.51;100.00
30463;BME280;17256;43.618;25.336;2023-06-14T06:37:28;100312.44;;;21.43;100.00
30463;BME280;17256;43.618;25.336;2023-06-14T06:40:30;100534.00;;;23.68;100.00
30463;BME280;17256;43.618;25.336;2023-06-14T06:43:59;100527.13;;;23.24;100.00
30463;BME280;17256;43.618;25.336;2023-06-14T06:51:25;100308.81;;;21.68;100.00
30463;BME280;17256;43.618;25.336;2023-06-14T06:59:27;100390.81;;;23.49;100.00
30463;BME280;17256;43.618;25.336;2023-06-14T07:03:23;100162.69;;;21.63;100.00
30463;BME280;17256;43.618;25.336;2023-06-14T07:07:00;100193.22;;;22.29;100.00
30463;BME280;17256;43.618;25.336;2023-06-14T07:11:22;100202.25;;;22.00;100.00
30463;BME280;17256;43.618;25.336;2023-06-14T07:18:20;100536.75;;;23.78;100.00
30463;BME280;17256;43.618;25.336;2023-06-14T07:21:50;100323.41;;;23.35;100.00
30463;BME280;17256;43.618;25.336;2023-06-14T07:25:54;100542.06;;;24.63;93.06
30463;BME280;17256;43.618;25.336;2023-06-14T07:33:07;100233.78;;;22.26;89.27
30463;BME280;17256;43.618;25.336;2023-06-14T07:40:20;100238.06;;;23.56;82.03
30463;BME280;17256;43.618;25.336;2023-06-14T07:47:51;100534.84;;;26.05;78.07
30463;BME280;17256;43.618;25.336;2023-06-14T07:56:11;100524.59;;;26.65;73.72
30463;BME280;17256;43.618;25.336;2023-06-14T07:59:54;100376.72;;;26.03;71.18
30463;BME280;17256;43.618;25.336;2023-06-14T08:02:23;100346.00;;;26.53;68.85
30463;BME280;17256;43.618;25.336;2023-06-14T08:04:50;100455.38;;;27.19;67.79
30463;BME280;17256;43.618;25.336;2023-06-14T08:07:18;100464.34;;;27.63;67.74
30463;BME280;17256;43.618;25.336;2023-06-14T08:09:47;100377.16;;;27.39;67.30
30463;BME280;17256;43.618;25.336;2023-06-14T08:12:17;100440.28;;;27.79;64.36
30463;BME280;17256;43.618;25.336;2023-06-14T08:15:19;100341.88;;;27.27;62.82
30463;BME280;17256;43.618;25.336;2023-06-14T08:19:34;100390.06;;;27.89;61.84
30463;BME280;17256;43.618;25.336;2023-06-14T08:27:50;100494.53;;;29.01;60.51
30463;BME280;17256;43.618;25.336;2023-06-14T08:32:09;100239.19;;;26.43;61.05
30463;BME280;17256;43.618;25.336;2023-06-14T08:35:37;100174.94;;;25.11;64.05
30463;BME280;17256;43.618;25.336;2023-06-14T08:39:24;100158.06;;;25.30;63.56
30463;BME280;17256;43.618;25.336;2023-06-14T08:43:00;100166.81;;;25.28;62.92
30463;BME280;17256;43.618;25.336;2023-06-14T08:45:57;100265.50;;;25.59;64.67
30463;BME280;17256;43.618;25.336;2023-06-14T08:48:30;100314.97;;;25.23;65.98
30463;BME280;17256;43.618;25.336;2023-06-14T08:55:22;100550.72;;;26.33;69.93
30463;BME280;17256;43.618;25.336;2023-06-14T09:02:35;100545.38;;;26.51;71.26
30463;BME280;17256;43.618;25.336;2023-06-14T09:06:11;100322.06;;;25.90;66.72
30463;BME280;17256;43.618;25.336;2023-06-14T09:09:21;100550.16;;;27.02;70.98
30463;BME280;17256;43.618;25.336;2023-06-14T09:13:07;100541.22;;;27.27;69.33
30463;BME280;17256;43.618;25.336;2023-06-14T09:17:05;100550.41;;;27.19;68.75
30463;BME280;17256;43.618;25.336;2023-06-14T09:19:59;100425.94;;;26.05;70.04
30463;BME280;17256;43.618;25.336;2023-06-14T09:22:31;100400.78;;;25.76;71.18
30463;BME280;17256;43.618;25.336;2023-06-14T09:24:59;100374.22;;;25.45;73.01
30463;BME280;17256;43.618;25.336;2023-06-14T09:27:29;100551.28;;;27.01;71.85
30463;BME280;17256;43.618;25.336;2023-06-14T09:30:02;100554.28;;;26.90;70.69
30463;BME280;17256;43.618;25.336;2023-06-14T09:32:30;100558.03;;;27.32;72.54
30463;BME280;17256;43.618;25.336;2023-06-14T09:35:10;100200.19;;;25.62;69.39
30463;BME280;17256;43.618;25.336;2023-06-14T09:37:42;100561.28;;;27.53;71.55
30463;BME280;17256;43.618;25.336;2023-06-14T09:40:10;100169.38;;;25.25;72.84
30463;BME280;17256;43.618;25.336;2023-06-14T09:42:44;100549.78;;;27.91;71.49
30463;BME280;17256;43.618;25.336;2023-06-14T09:45:21;100456.69;;;26.94;71.02
30463;BME280;17256;43.618;25.336;2023-06-14T09:47:52;100187.88;;;25.26;69.90
30463;BME280;17256;43.618;25.336;2023-06-14T09:50:27;100452.22;;;26.80;70.52
30463;BME280;17256;43.618;25.336;2023-06-14T09:53:06;100190.66;;;25.12;70.67
30463;BME280;17256;43.618;25.336;2023-06-14T09:55:40;100461.34;;;26.58;72.96
30463;BME280;17256;43.618;25.336;2023-06-14T09:58:19;100257.06;;;25.92;72.71
30463;BME280;17256;43.618;25.336;2023-06-14T10:01:15;100299.44;;;26.28;71.33
30463;BME280;17256;43.618;25.336;2023-06-14T10:04:03;100406.38;;;26.74;70.46
30463;BME280;17256;43.618;25.336;2023-06-14T10:06:45;100176.97;;;25.24;73.04
30463;BME280;17256;43.618;25.336;2023-06-14T10:09:36;100179.94;;;25.46;69.86
30463;BME280;17256;43.618;25.336;2023-06-14T10:12:37;100328.75;;;26.41;69.72
30463;BME280;17256;43.618;25.336;2023-06-14T10:15:30;100300.69;;;26.90;68.60
30463;BME280;17256;43.618;25.336;2023-06-14T10:19:21;100538.53;;;28.27;68.56
30463;BME280;17256;43.618;25.336;2023-06-14T10:24:48;100314.66;;;26.95;68.40
30463;BME280;17256;43.618;25.336;2023-06-14T10:27:16;100381.97;;;27.74;67.74
30463;BME280;17256;43.618;25.336;2023-06-14T10:32:22;100325.34;;;27.71;64.94
30463;BME280;17256;43.618;25.336;2023-06-14T10:35:15;100516.16;;;28.53;63.87
30463;BME280;17256;43.618;25.336;2023-06-14T10:37:51;100413.44;;;28.04;62.81
30463;BME280;17256;43.618;25.336;2023-06-14T10:40:30;100481.25;;;28.79;64.96
30463;BME280;17256;43.618;25.336;2023-06-14T10:42:57;100371.78;;;27.87;63.10
30463;BME280;17256;43.618;25.336;2023-06-14T10:45:22;100386.19;;;27.49;65.41
30463;BME280;17256;43.618;25.336;2023-06-14T10:47:49;100337.81;;;26.92;67.21
30463;BME280;17256;43.618;25.336;2023-06-14T10:50:17;100376.13;;;26.93;68.42
30463;BME280;17256;43.618;25.336;2023-06-14T10:52:45;100388.56;;;26.92;70.23
30463;BME280;17256;43.618;25.336;2023-06-14T10:55:17;100512.59;;;27.20;71.72
30463;BME280;17256;43.618;25.336;2023-06-14T10:57:54;100215.53;;;25.37;71.30
30463;BME280;17256;43.618;25.336;2023-06-14T11:00:28;100416.59;;;26.56;74.10
30463;BME280;17256;43.618;25.336;2023-06-14T11:06:23;100507.78;;;27.75;71.82
30463;BME280;17256;43.618;25.336;2023-06-14T11:12:03;100401.09;;;27.77;68.67
30463;BME280;17256;43.618;25.336;2023-06-14T11:14:30;100421.69;;;28.00;69.42
30463;BME280;17256;43.618;25.336;2023-06-14T11:16:56;100337.28;;;27.32;68.09
30463;BME280;17256;43.618;25.336;2023-06-14T11:19:22;100430.16;;;27.50;72.91
30463;BME280;17256;43.618;25.336;2023-06-14T11:21:48;100370.94;;;27.01;72.26
30463;BME280;17256;43.618;25.336;2023-06-14T11:24:14;100306.56;;;26.53;74.16
30463;BME280;17256;43.618;25.336;2023-06-14T11:26:40;100336.47;;;26.90;72.30
30463;BME280;17256;43.618;25.336;2023-06-14T11:29:06;100329.09;;;27.08;72.64
30463;BME280;17256;43.618;25.336;2023-06-14T11:31:31;100500.47;;;28.46;73.34
30463;BME280;17256;43.618;25.336;2023-06-14T11:33:58;100403.03;;;27.54;70.44
30463;BME280;17256;43.618;25.336;2023-06-14T11:36:29;100441.34;;;27.55;74.12
30463;BME280;17256;43.618;25.336;2023-06-14T11:41:35;100495.25;;;27.40;73.71
30463;BME280;17256;43.618;25.336;2023-06-14T11:44:02;100423.41;;;27.24;74.63
30463;BME280;17256;43.618;25.336;2023-06-14T11:46:28;100345.75;;;27.18;73.08
30463;BME280;17256;43.618;25.336;2023-06-14T11:48:54;100413.38;;;27.45;72.37
30463;BME280;17256;43.618;25.336;2023-06-14T11:51:20;100469.13;;;27.48;72.72
30463;BME280;17256;43.618;25.336;2023-06-14T11:53:48;100254.09;;;26.29;73.02
30463;BME280;17256;43.618;25.336;2023-06-14T11:56:14;100332.41;;;26.68;74.78
30463;BME280;17256;43.618;25.336;2023-06-14T11:58:43;100462.75;;;27.70;74.56
30463;BME280;17256;43.618;25.336;2023-06-14T12:01:09;100315.09;;;26.89;72.68
30463;BME280;17256;43.618;25.336;2023-06-14T12:03:34;100361.19;;;27.34;72.14
30463;BME280;17256;43.618;25.336;2023-06-14T12:06:08;100327.59;;;26.96;74.25
30463;BME280;17256;43.618;25.336;2023-06-14T12:08:35;100471.84;;;27.81;71.48
30463;BME280;17256;43.618;25.336;2023-06-14T12:11:05;100333.47;;;27.00;72.69
30463;BME280;17256;43.618;25.336;2023-06-14T12:13:31;100328.09;;;26.98;72.75
30463;BME280;17256;43.618;25.336;2023-06-14T12:15:57;100285.63;;;26.95;74.07
30463;BME280;17256;43.618;25.336;2023-06-14T12:18:32;100333.03;;;27.56;73.56
30463;BME280;17256;43.618;25.336;2023-06-14T12:21:00;100321.25;;;27.41;69.60
30463;BME280;17256;43.618;25.336;2023-06-14T12:26:17;100295.03;;;27.40;70.27
30463;BME280;17256;43.618;25.336;2023-06-14T12:28:47;100233.91;;;27.27;66.45
30463;BME280;17256;43.618;25.336;2023-06-14T12:31:15;100299.31;;;27.51;68.96
30463;BME280;17256;43.618;25.336;2023-06-14T12:33:41;100265.81;;;27.36;68.44
30463;BME280;17256;43.618;25.336;2023-06-14T12:36:08;100259.88;;;27.82;68.27
30463;BME280;17256;43.618;25.336;2023-06-14T12:38:35;100337.66;;;28.51;68.37
30463;BME280;17256;43.618;25.336;2023-06-14T12:41:01;100285.28;;;28.44;66.89
30463;BME280;17256;43.618;25.336;2023-06-14T12:43:27;100362.91;;;28.25;64.45
30463;BME280;17256;43.618;25.336;2023-06-14T12:45:52;100274.94;;;27.33;64.84
30463;BME280;17256;43.618;25.336;2023-06-14T12:48:19;100313.81;;;27.81;64.30
30463;BME280;17256;43.618;25.336;2023-06-14T12:50:44;100307.25;;;27.94;65.09
30463;BME280;17256;43.618;25.336;2023-06-14T12:53:10;100258.28;;;26.95;66.32
30463;BME280;17256;43.618;25.336;2023-06-14T12:55:36;100433.91;;;27.59;66.70
30463;BME280;17256;43.618;25.336;2023-06-14T12:58:01;100250.69;;;26.00;69.66
30463;BME280;17256;43.618;25.336;2023-06-14T13:00:28;100212.94;;;25.73;69.15
30463;BME280;17256;43.618;25.336;2023-06-14T13:02:56;100347.97;;;26.20;71.42
30463;BME280;17256;43.618;25.336;2023-06-14T13:05:23;100292.97;;;26.27;71.20
30463;BME280;17256;43.618;25.336;2023-06-14T13:07:48;100236.97;;;26.12;70.87
30463;BME280;17256;43.618;25.336;2023-06-14T13:10:16;100245.44;;;26.40;70.48
30463;BME280;17256;43.618;25.336;2023-06-14T13:12:41;100227.50;;;26.35;70.07
30463;BME280;17256;43.618;25.336;2023-06-14T13:15:07;100194.66;;;26.45;69.54
30463;BME280;17256;43.618;25.336;2023-06-14T13:17:34;100363.31;;;27.65;67.47
30463;BME280;17256;43.618;25.336;2023-06-14T13:20:06;100417.63;;;27.93;67.17
30463;BME280;17256;43.618;25.336;2023-06-14T13:22:32;100174.53;;;26.10;67.32
30463;BME280;17256;43.618;25.336;2023-06-14T13:24:58;100328.97;;;27.13;67.39
30463;BME280;17256;43.618;25.336;2023-06-14T13:27:23;100257.66;;;26.98;66.13
30463;BME280;17256;43.618;25.336;2023-06-14T13:29:50;100217.59;;;27.02;65.56
30463;BME280;17256;43.618;25.336;2023-06-14T13:32:15;100297.09;;;27.48;66.61
30463;BME280;17256;43.618;25.336;2023-06-14T13:34:41;100330.41;;;27.46;67.78
30463;BME280;17256;43.618;25.336;2023-06-14T13:37:06;100323.06;;;27.59;67.91
30463;BME280;17256;43.618;25.336;2023-06-14T13:39:32;100392.41;;;28.18;67.26
30463;BME280;17256;43.618;25.336;2023-06-14T13:41:57;100242.25;;;27.54;67.78
30463;BME280;17256;43.618;25.336;2023-06-14T13:44:23;100372.09;;;28.61;64.24
30463;BME280;17256;43.618;25.336;2023-06-14T13:46:50;100318.19;;;28.18;65.70
30463;BME280;17256;43.618;25.336;2023-06-14T13:49:16;100273.78;;;28.01;65.22
30463;BME280;17256;43.618;25.336;2023-06-14T13:51:42;100217.50;;;27.29;63.10
30463;BME280;17256;43.618;25.336;2023-06-14T13:54:07;100301.94;;;27.70;63.24
30463;BME280;17256;43.618;25.336;2023-06-14T13:56:33;100269.88;;;27.66;63.92
30463;BME280;17256;43.618;25.336;2023-06-14T13:58:59;100368.81;;;28.14;64.47
30463;BME280;17256;43.618;25.336;2023-06-14T14:01:25;100340.66;;;28.01;63.59
30463;BME280;17256;43.618;25.336;2023-06-14T14:03:54;100322.28;;;27.45;64.14
30463;BME280;17256;43.618;25.336;2023-06-14T14:06:19;100263.84;;;27.37;64.31
30463;BME280;17256;43.618;25.336;2023-06-14T14:08:45;100284.59;;;27.77;63.80
30463;BME280;17256;43.618;25.336;2023-06-14T14:11:11;100190.22;;;27.16;63.07
30463;BME280;17256;43.618;25.336;2023-06-14T14:13:38;100201.22;;;27.26;64.42
30463;BME280;17256;43.618;25.336;2023-06-14T14:16:05;100341.75;;;28.13;62.21
30463;BME280;17256;43.618;25.336;2023-06-14T14:18:31;100298.75;;;28.16;63.62
30463;BME280;17256;43.618;25.336;2023-06-14T14:20:58;100265.97;;;27.76;61.54
30463;BME280;17256;43.618;25.336;2023-06-14T14:23:24;100340.94;;;28.22;62.98
30463;BME280;17256;43.618;25.336;2023-06-14T14:25:49;100377.28;;;28.14;65.52
30463;BME280;17256;43.618;25.336;2023-06-14T14:28:15;100313.88;;;27.67;64.52
30463;BME280;17256;43.618;25.336;2023-06-14T14:30:44;100189.13;;;27.03;64.90
30463;BME280;17256;43.618;25.336;2023-06-14T14:33:09;100376.75;;;28.57;63.90
30463;BME280;17256;43.618;25.336;2023-06-14T14:35:44;100266.25;;;27.66;63.90
30463;BME280;17256;43.618;25.336;2023-06-14T14:38:13;100295.94;;;27.63;62.84
30463;BME280;17256;43.618;25.336;2023-06-14T14:40:39;100368.97;;;28.09;65.46
30463;BME280;17256;43.618;25.336;2023-06-14T14:43:06;100299.91;;;27.84;65.07
30463;BME280;17256;43.618;25.336;2023-06-14T14:45:31;100294.28;;;28.24;64.56
30463;BME280;17256;43.618;25.336;2023-06-14T14:47:57;100283.09;;;27.79;61.85
30463;BME280;17256;43.618;25.336;2023-06-14T14:50:22;100266.50;;;27.78;62.72
30463;BME280;17256;43.618;25.336;2023-06-14T14:52:48;100190.34;;;27.33;62.65
30463;BME280;17256;43.618;25.336;2023-06-14T14:55:14;100266.59;;;27.95;61.25
30463;BME280;17256;43.618;25.336;2023-06-14T14:57:39;100280.78;;;28.12;61.42
30463;BME280;17256;43.618;25.336;2023-06-14T15:00:05;100309.25;;;28.56;62.22
30463;BME280;17256;43.618;25.336;2023-06-14T15:02:31;100349.66;;;28.56;60.38
30463;BME280;17256;43.618;25.336;2023-06-14T15:04:57;100218.09;;;27.62;61.11
30463;BME280;17256;43.618;25.336;2023-06-14T15:07:30;100348.41;;;28.40;60.49
30463;BME280;17256;43.618;25.336;2023-06-14T15:09:56;100313.16;;;27.84;61.01
30463;BME280;17256;43.618;25.336;2023-06-14T15:12:22;100140.16;;;26.99;61.36
30463;BME280;17256;43.618;25.336;2023-06-14T15:14:52;100104.31;;;27.13;59.44
30463;BME280;17256;43.618;25.336;2023-06-14T15:17:18;100258.22;;;28.12;57.74
30463;BME280;17256;43.618;25.336;2023-06-14T15:19:48;100256.34;;;28.39;58.81
30463;BME280;17256;43.618;25.336;2023-06-14T15:22:14;100351.56;;;29.26;57.61
30463;BME280;17256;43.618;25.336;2023-06-14T15:24:41;100276.88;;;28.70;58.46
30463;BME280;17256;43.618;25.336;2023-06-14T15:27:07;100238.16;;;28.23;58.41
30463;BME280;17256;43.618;25.336;2023-06-14T15:29:33;100351.81;;;28.99;59.33